sensor_id;sensor_type;location;lat;lon;timestamp;P1;durP1;ratioP1;P2;durP2;ratioP2
35243;SDS011;37916;52.160;21.066;2023-02-21T00:08:08;4.10;;;1.50;;
35243;SDS011;37916;52.160;21.066;2023-02-21T00:18:27;2.67;;;1.30;;
35243;SDS011;37916;52.160;21.066;2023-02-21T00:28:50;3.10;;;1.20;;
35243;SDS011;37916;52.160;21.066;2023-02-21T00:39:09;3.75;;;1.02;;
35243;SDS011;37916;52.160;21.066;2023-02-21T00:49:31;2.25;;;0.70;;
35243;SDS011;37916;52.160;21.066;2023-02-21T00:59:53;1.85;;;0.90;;
35243;SDS011;37916;52.160;21.066;2023-02-21T01:10:12;2.15;;;0.68;;
35243;SDS011;37916;52.160;21.066;2023-02-21T01:20:31;3.45;;;0.63;;
35243;SDS011;37916;52.160;21.066;2023-02-21T01:30:51;1.35;;;0.63;;
35243;SDS011;37916;52.160;21.066;2023-02-21T01:41:10;1.30;;;0.50;;
35243;SDS011;37916;52.160;21.066;2023-02-21T01:51:30;2.53;;;0.77;;
35243;SDS011;37916;52.160;21.066;2023-02-21T02:02:10;2.00;;;0.97;;
35243;SDS011;37916;52.160;21.066;2023-02-21T02:12:51;3.50;;;0.77;;
35243;SDS011;37916;52.160;21.066;2023-02-21T02:23:33;1.17;;;0.60;;
35243;SDS011;37916;52.160;21.066;2023-02-21T02:44:19;1.73;;;0.70;;
35243;SDS011;37916;52.160;21.066;2023-02-21T02:54:28;1.60;;;0.50;;
35243;SDS011;37916;52.160;21.066;2023-02-21T03:04:52;6.60;;;0.90;;
35243;SDS011;37916;52.160;21.066;2023-02-21T03:25:10;4.23;;;0.80;;
35243;SDS011;37916;52.160;21.066;2023-02-21T03:35:13;3.87;;;0.90;;
35243;SDS011;37916;52.160;21.066;2023-02-21T03:45:15;5.22;;;1.10;;
35243;SDS011;37916;52.160;21.066;2023-02-21T03:55:15;4.68;;;0.63;;
35243;SDS011;37916;52.160;21.066;2023-02-21T04:05:16;3.33;;;0.50;;
35243;SDS011;37916;52.160;21.066;2023-02-21T04:15:17;9.43;;;1.20;;
35243;SDS011;37916;52.160;21.066;2023-02-21T04:25:17;5.57;;;0.88;;
35243;SDS011;37916;52.160;21.066;2023-02-21T04:35:18;6.25;;;0.80;;
35243;SDS011;37916;52.160;21.066;2023-02-21T04:45:19;4.45;;;0.55;;
35243;SDS011;37916;52.160;21.066;2023-02-21T04:55:22;10.93;;;1.63;;
35243;SDS011;37916;52.160;21.066;2023-02-21T05:05:23;7.40;;;1.23;;
35243;SDS011;37916;52.160;21.066;2023-02-21T05:15:24;8.55;;;0.88;;
35243;SDS011;37916;52.160;21.066;2023-02-21T05:25:24;7.60;;;1.00;;
35243;SDS011;37916;52.160;21.066;2023-02-21T05:35:25;7.43;;;1.67;;
35243;SDS011;37916;52.160;21.066;2023-02-21T05:45:26;8.95;;;1.08;;
35243;SDS011;37916;52.160;21.066;2023-02-21T05:55:26;4.57;;;1.23;;
35243;SDS011;37916;52.160;21.066;2023-02-21T06:05:27;6.88;;;1.15;;
35243;SDS011;37916;52.160;21.066;2023-02-21T06:15:28;4.35;;;1.23;;
35243;SDS011;37916;52.160;21.066;2023-02-21T06:25:29;8.07;;;1.23;;
35243;SDS011;37916;52.160;21.066;2023-02-21T06:35:29;7.82;;;1.27;;
35243;SDS011;37916;52.160;21.066;2023-02-21T06:45:33;11.70;;;1.50;;
35243;SDS011;37916;52.160;21.066;2023-02-21T06:55:34;7.82;;;1.65;;
35243;SDS011;37916;52.160;21.066;2023-02-21T07:05:34;8.40;;;1.30;;
35243;SDS011;37916;52.160;21.066;2023-02-21T07:15:37;10.75;;;1.20;;
35243;SDS011;37916;52.160;21.066;2023-02-21T07:25:38;9.88;;;1.40;;
35243;SDS011;37916;52.160;21.066;2023-02-21T07:35:38;6.60;;;1.10;;
35243;SDS011;37916;52.160;21.066;2023-02-21T07:45:39;7.18;;;1.70;;
35243;SDS011;37916;52.160;21.066;2023-02-21T07:55:40;12.00;;;2.20;;
35243;SDS011;37916;52.160;21.066;2023-02-21T08:05:40;12.95;;;2.05;;
35243;SDS011;37916;52.160;21.066;2023-02-21T08:15:41;7.45;;;2.33;;
35243;SDS011;37916;52.160;21.066;2023-02-21T08:25:42;9.35;;;1.42;;
35243;SDS011;37916;52.160;21.066;2023-02-21T08:35:43;7.78;;;1.38;;
35243;SDS011;37916;52.160;21.066;2023-02-21T08:45:44;9.05;;;2.25;;
35243;SDS011;37916;52.160;21.066;2023-02-21T08:55:44;8.20;;;1.55;;
35243;SDS011;37916;52.160;21.066;2023-02-21T09:05:45;10.95;;;1.60;;
35243;SDS011;37916;52.160;21.066;2023-02-21T09:15:46;9.05;;;1.67;;
35243;SDS011;37916;52.160;21.066;2023-02-21T09:25:47;6.47;;;2.63;;
35243;SDS011;37916;52.160;21.066;2023-02-21T09:35:48;11.13;;;1.58;;
35243;SDS011;37916;52.160;21.066;2023-02-21T09:45:51;11.05;;;1.75;;
35243;SDS011;37916;52.160;21.066;2023-02-21T10:26:24;6.88;;;2.28;;
35243;SDS011;37916;52.160;21.066;2023-02-21T10:36:27;10.10;;;1.63;;
35243;SDS011;37916;52.160;21.066;2023-02-21T10:46:36;8.20;;;1.50;;
35243;SDS011;37916;52.160;21.066;2023-02-21T10:56:42;6.85;;;1.45;;
35243;SDS011;37916;52.160;21.066;2023-02-21T11:06:43;12.25;;;1.85;;
35243;SDS011;37916;52.160;21.066;2023-02-21T11:17:11;9.27;;;2.00;;
35243;SDS011;37916;52.160;21.066;2023-02-21T11:27:12;5.90;;;1.60;;
35243;SDS011;37916;52.160;21.066;2023-02-21T11:37:13;4.72;;;1.38;;
35243;SDS011;37916;52.160;21.066;2023-02-21T11:47:16;5.70;;;1.50;;
35243;SDS011;37916;52.160;21.066;2023-02-21T12:17:34;10.70;;;1.52;;
35243;SDS011;37916;52.160;21.066;2023-02-21T12:27:53;6.53;;;1.45;;
35243;SDS011;37916;52.160;21.066;2023-02-21T12:48:31;5.45;;;1.35;;
35243;SDS011;37916;52.160;21.066;2023-02-21T12:58:58;4.32;;;1.13;;
35243;SDS011;37916;52.160;21.066;2023-02-21T13:19:30;8.13;;;1.70;;
35243;SDS011;37916;52.160;21.066;2023-02-21T13:29:39;5.90;;;2.10;;
35243;SDS011;37916;52.160;21.066;2023-02-21T13:39:45;8.63;;;2.72;;
35243;SDS011;37916;52.160;21.066;2023-02-21T13:49:54;8.57;;;2.10;;
35243;SDS011;37916;52.160;21.066;2023-02-21T13:59:56;7.97;;;1.95;;
35243;SDS011;37916;52.160;21.066;2023-02-21T14:09:57;12.55;;;2.28;;
35243;SDS011;37916;52.160;21.066;2023-02-21T14:19:58;10.27;;;2.10;;
35243;SDS011;37916;52.160;21.066;2023-02-21T15:21:33;16.08;;;3.05;;
35243;SDS011;37916;52.160;21.066;2023-02-21T15:31:35;16.05;;;2.55;;
35243;SDS011;37916;52.160;21.066;2023-02-21T15:41:46;17.48;;;2.97;;
35243;SDS011;37916;52.160;21.066;2023-02-21T15:51:49;9.07;;;2.42;;
35243;SDS011;37916;52.160;21.066;2023-02-21T16:32:30;11.38;;;2.50;;
35243;SDS011;37916;52.160;21.066;2023-02-21T16:42:31;14.07;;;3.72;;
35243;SDS011;37916;52.160;21.066;2023-02-21T16:52:32;15.85;;;4.15;;
35243;SDS011;37916;52.160;21.066;2023-02-21T17:02:33;19.65;;;3.75;;
35243;SDS011;37916;52.160;21.066;2023-02-21T17:12:34;12.65;;;3.20;;
35243;SDS011;37916;52.160;21.066;2023-02-21T17:33:12;16.67;;;4.37;;
35243;SDS011;37916;52.160;21.066;2023-02-21T17:43:17;11.93;;;4.38;;
35243;SDS011;37916;52.160;21.066;2023-02-21T17:53:18;20.80;;;4.95;;
35243;SDS011;37916;52.160;21.066;2023-02-21T18:03:22;21.00;;;4.00;;
35243;SDS011;37916;52.160;21.066;2023-02-21T18:13:23;18.77;;;3.83;;
35243;SDS011;37916;52.160;21.066;2023-02-21T18:23:31;23.35;;;4.32;;
35243;SDS011;37916;52.160;21.066;2023-02-21T18:33:32;18.60;;;3.95;;
35243;SDS011;37916;52.160;21.066;2023-02-21T18:43:33;18.77;;;4.72;;
35243;SDS011;37916;52.160;21.066;2023-02-21T18:53:34;20.60;;;4.13;;
35243;SDS011;37916;52.160;21.066;2023-02-21T19:03:34;22.25;;;3.90;;
35243;SDS011;37916;52.160;21.066;2023-02-21T19:13:38;19.08;;;4.32;;
35243;SDS011;37916;52.160;21.066;2023-02-21T19:23:49;17.50;;;4.88;;
35243;SDS011;37916;52.160;21.066;2023-02-21T19:33:50;18.67;;;3.97;;
35243;SDS011;37916;52.160;21.066;2023-02-21T19:43:54;19.23;;;4.15;;
35243;SDS011;37916;52.160;21.066;2023-02-21T19:53:54;20.73;;;5.03;;
35243;SDS011;37916;52.160;21.066;2023-02-21T20:03:58;19.53;;;5.77;;
35243;SDS011;37916;52.160;21.066;2023-02-21T20:13:59;15.23;;;4.85;;
35243;SDS011;37916;52.160;21.066;2023-02-21T20:24:00;19.17;;;4.05;;
35243;SDS011;37916;52.160;21.066;2023-02-21T20:34:02;12.88;;;4.07;;
35243;SDS011;37916;52.160;21.066;2023-02-21T20:44:04;18.20;;;4.50;;
35243;SDS011;37916;52.160;21.066;2023-02-21T20:54:06;19.60;;;5.30;;
35243;SDS011;37916;52.160;21.066;2023-02-21T21:04:09;16.00;;;4.43;;
35243;SDS011;37916;52.160;21.066;2023-02-21T21:14:11;15.25;;;4.65;;
35243;SDS011;37916;52.160;21.066;2023-02-21T21:24:14;25.08;;;4.78;;
35243;SDS011;37916;52.160;21.066;2023-02-21T21:34:16;29.50;;;4.03;;
35243;SDS011;37916;52.160;21.066;2023-02-21T21:44:22;19.83;;;4.55;;
35243;SDS011;37916;52.160;21.066;2023-02-21T21:54:24;17.45;;;4.45;;
35243;SDS011;37916;52.160;21.066;2023-02-21T22:04:25;7.60;;;2.20;;
35243;SDS011;37916;52.160;21.066;2023-02-21T22:14:26;10.60;;;3.10;;
35243;SDS011;37916;52.160;21.066;2023-02-21T22:24:27;6.13;;;2.13;;
35243;SDS011;37916;52.160;21.066;2023-02-21T22:34:28;13.13;;;3.70;;
35243;SDS011;37916;52.160;21.066;2023-02-21T22:44:28;15.00;;;4.25;;
35243;SDS011;37916;52.160;21.066;2023-02-21T22:54:29;16.95;;;4.60;;
35243;SDS011;37916;52.160;21.066;2023-02-21T23:04:30;15.40;;;4.13;;
35243;SDS011;37916;52.160;21.066;2023-02-21T23:14:33;13.23;;;3.28;;
35243;SDS011;37916;52.160;21.066;2023-02-21T23:24:34;10.90;;;3.33;;
35243;SDS011;37916;52.160;21.066;2023-02-21T23:34:35;15.27;;;3.88;;
35243;SDS011;37916;52.160;21.066;2023-02-21T23:44:38;8.15;;;2.40;;
35243;SDS011;37916;52.160;21.066;2023-02-21T23:54:40;5.13;;;1.85;;
